Time;durP1;ratioP1;P1;durP2;ratioP2;P2;SDS_P1;SDS_P2;PMS_P1;PMS_P2;Temp;Humidity;BMP_temperature;BMP_pressure;BME280_temperature;BME280_humidity;BME280_pressure;Samples;Min_cycle;Max_cycle;Signal;HPM_P1;HPM_P2
2021/04/03 00:00:40;;;;;;;7.60;6.53;;;9.20;70.80;;;;;;4967312;28;20452;-73
2021/04/03 00:03:08;;;;;;;7.13;6.43;;;9.20;70.60;;;;;;4964559;28;20241;-75
2021/04/03 00:05:34;;;;;;;12.13;6.33;;;9.20;70.50;;;;;;4963520;28;21087;-72
2021/04/03 00:08:00;;;;;;;14.60;7.57;;;9.30;70.50;;;;;;4967817;28;20477;-73
2021/04/03 00:10:29;;;;;;;9.33;7.20;;;9.30;70.30;;;;;;4963513;28;20450;-74
2021/04/03 00:12:56;;;;;;;8.07;7.03;;;9.40;69.80;;;;;;4961363;28;20450;-71
2021/04/03 00:15:23;;;;;;;9.07;6.27;;;9.30;69.00;;;;;;4965999;28;20870;-75
2021/04/03 00:17:48;;;;;;;9.07;6.93;;;9.30;69.50;;;;;;4964196;28;20448;-73
2021/04/03 00:20:17;;;;;;;11.20;7.23;;;9.20;69.60;;;;;;4944996;28;20478;-73
2021/04/03 00:22:44;;;;;;;9.20;6.80;;;9.20;70.00;;;;;;4966122;28;20186;-74
2021/04/03 00:25:14;;;;;;;8.40;6.60;;;9.20;70.40;;;;;;4963875;28;20440;-72
2021/04/03 00:27:41;;;;;;;8.13;6.90;;;9.20;70.30;;;;;;4964764;28;20477;-71
2021/04/03 00:30:17;;;;;;;7.43;6.03;;;9.20;70.70;;;;;;4964575;28;20469;-73
2021/04/03 00:32:54;;;;;;;7.00;6.20;;;9.30;70.20;;;;;;4961800;28;20441;-73
2021/04/03 00:35:24;;;;;;;6.90;6.20;;;9.30;70.00;;;;;;4965303;28;20922;-72
2021/04/03 00:37:50;;;;;;;9.93;5.80;;;9.40;70.00;;;;;;4962662;28;20457;-72
2021/04/03 00:40:19;;;;;;;12.07;6.63;;;9.40;69.60;;;;;;4941992;28;20486;-73
2021/04/03 00:42:45;;;;;;;6.60;6.00;;;9.40;69.50;;;;;;4964175;28;21171;-73
2021/04/03 00:45:12;;;;;;;10.63;6.77;;;9.30;69.70;;;;;;4968105;28;20505;-72
2021/04/03 00:47:38;;;;;;;9.57;6.60;;;9.30;69.70;;;;;;4965885;28;20473;-73
2021/04/03 00:50:05;;;;;;;6.97;6.20;;;9.30;69.90;;;;;;4959913;28;20470;-74
2021/04/03 00:52:31;;;;;;;7.60;6.37;;;9.30;69.40;;;;;;4965040;28;20195;-73
2021/04/03 00:54:57;;;;;;;14.40;5.77;;;9.30;69.10;;;;;;4966533;28;20422;-72
2021/04/03 00:57:22;;;;;;;10.77;6.30;;;9.40;69.40;;;;;;4962258;28;20203;-73
2021/04/03 00:59:48;;;;;;;7.20;5.60;;;9.40;69.50;;;;;;4963700;28;20285;-72
2021/04/03 01:02:14;;;;;;;9.63;5.37;;;9.40;69.80;;;;;;4960493;28;20199;-73
2021/04/03 01:04:39;;;;;;;11.03;6.27;;;9.40;69.60;;;;;;4961914;28;20197;-73
2021/04/03 01:07:05;;;;;;;7.60;5.80;;;9.40;69.70;;;;;;4945853;28;20281;-71
2021/04/03 01:09:39;;;;;;;7.03;5.43;;;9.50;69.50;;;;;;4962861;28;20902;-73
2021/04/03 01:12:14;;;;;;;12.20;6.53;;;9.50;69.10;;;;;;4963559;28;20501;-72
2021/04/03 01:14:58;;;;;;;8.20;5.97;;;9.50;68.80;;;;;;4945023;28;20530;-73
2021/04/03 01:17:48;;;;;;;8.20;5.83;;;9.50;68.50;;;;;;4963562;28;20441;-72
2021/04/03 01:20:28;;;;;;;5.77;5.10;;;9.60;69.20;;;;;;4965983;28;20454;-73
2021/04/03 01:23:27;;;;;;;7.07;5.93;;;9.60;68.90;;;;;;4962239;28;21210;-74
2021/04/03 01:26:25;;;;;;;7.93;5.80;;;9.60;68.20;;;;;;4964658;28;20486;-74
2021/04/03 01:29:09;;;;;;;8.07;5.43;;;9.50;68.40;;;;;;4958116;28;20441;-72
2021/04/03 01:31:39;;;;;;;6.77;6.03;;;9.50;68.40;;;;;;4960196;28;20437;-73
2021/04/03 01:34:16;;;;;;;6.13;5.63;;;9.40;68.30;;;;;;4963251;28;20464;-73
2021/04/03 01:36:42;;;;;;;7.87;5.57;;;9.40;69.00;;;;;;4961770;28;20855;-74
2021/04/03 01:39:16;;;;;;;8.93;6.70;;;9.40;69.00;;;;;;4946736;28;20533;-73
2021/04/03 01:41:46;;;;;;;6.43;5.83;;;9.40;69.30;;;;;;4962446;28;20446;-73
2021/04/03 01:44:17;;;;;;;10.30;7.13;;;9.30;68.50;;;;;;4963774;28;20524;-73
2021/04/03 01:46:44;;;;;;;10.83;6.53;;;9.30;68.30;;;;;;4942090;28;21153;-71
2021/04/03 01:49:13;;;;;;;6.30;5.70;;;9.20;68.70;;;;;;4964951;28;20860;-71
2021/04/03 01:51:42;;;;;;;8.23;6.00;;;9.20;68.70;;;;;;4962482;28;20433;-73
2021/04/03 01:54:10;;;;;;;6.17;5.57;;;9.10;68.70;;;;;;4960331;28;20846;-72
2021/04/03 01:56:37;;;;;;;6.47;5.87;;;9.10;69.10;;;;;;4963717;28;20984;-73
2021/04/03 01:59:07;;;;;;;7.50;5.80;;;9.00;69.20;;;;;;4964841;28;20464;-73
2021/04/03 02:01:36;;;;;;;8.07;5.67;;;8.90;69.20;;;;;;4963809;28;20442;-73
2021/04/03 02:04:03;;;;;;;14.60;6.07;;;8.90;69.30;;;;;;4962715;28;20446;-73
2021/04/03 02:06:29;;;;;;;6.53;5.80;;;8.90;70.80;;;;;;4962721;28;21240;-73
2021/04/03 02:08:58;;;;;;;6.50;5.90;;;8.80;70.90;;;;;;4962792;28;20536;-72
2021/04/03 02:11:24;;;;;;;9.30;4.80;;;8.70;70.70;;;;;;4959183;28;21236;-73
2021/04/03 02:13:51;;;;;;;7.80;5.50;;;8.70;71.10;;;;;;4962619;28;20454;-73
2021/04/03 02:16:19;;;;;;;8.87;5.60;;;8.60;71.60;;;;;;4962253;28;21372;-74
2021/04/03 02:18:46;;;;;;;7.33;5.67;;;8.60;71.50;;;;;;4961503;28;20466;-74
2021/04/03 02:21:11;;;;;;;7.90;5.90;;;8.60;71.80;;;;;;4960137;28;20457;-72
2021/04/03 02:23:37;;;;;;;12.97;6.30;;;8.80;71.60;;;;;;4955539;28;20488;-73
2021/04/03 02:26:04;;;;;;;5.83;5.30;;;8.70;71.70;;;;;;4966642;28;20914;-73
2021/04/03 02:28:30;;;;;;;7.80;5.57;;;8.70;72.20;;;;;;4967855;28;21122;-73
2021/04/03 02:30:56;;;;;;;7.23;6.10;;;8.80;72.30;;;;;;4966347;28;20457;-73
2021/04/03 02:33:21;;;;;;;10.23;5.50;;;8.70;72.40;;;;;;4965893;28;20454;-74
2021/04/03 02:35:47;;;;;;;6.97;6.23;;;8.70;73.30;;;;;;4964211;28;20217;-73
2021/04/03 02:38:14;;;;;;;6.27;5.67;;;8.80;74.10;;;;;;4964484;28;20198;-72
2021/04/03 02:40:40;;;;;;;18.03;6.27;;;8.80;74.10;;;;;;4961761;28;20245;-73
2021/04/03 02:43:27;;;;;;;7.93;6.37;;;8.80;74.70;;;;;;4967401;28;20811;-71
2021/04/03 02:46:06;;;;;;;6.23;5.63;;;8.80;74.90;;;;;;4968207;28;20484;-73
2021/04/03 02:48:36;;;;;;;8.77;5.90;;;8.80;75.00;;;;;;4964286;28;20465;-73
2021/04/03 02:51:03;;;;;;;10.43;6.20;;;8.90;74.90;;;;;;4963625;28;20485;-73
2021/04/03 02:53:32;;;;;;;6.70;5.60;;;8.90;75.00;;;;;;4966871;28;20503;-73
2021/04/03 02:56:04;;;;;;;7.10;6.00;;;8.90;75.40;;;;;;4964719;28;20494;-73
2021/04/03 02:58:33;;;;;;;6.97;5.43;;;8.90;75.90;;;;;;4948556;28;20445;-72
2021/04/03 03:00:59;;;;;;;7.80;6.00;;;8.90;76.10;;;;;;4963724;28;20831;-71
2021/04/03 03:03:26;;;;;;;11.93;6.20;;;8.90;76.50;;;;;;4963577;28;20425;-73
2021/04/03 03:05:59;;;;;;;7.37;6.63;;;9.00;75.80;;;;;;4962928;28;20469;-73
2021/04/03 03:08:27;;;;;;;9.67;6.57;;;8.90;76.20;;;;;;4964182;28;20813;-73
2021/04/03 03:10:55;;;;;;;9.40;6.33;;;9.00;76.20;;;;;;4963344;28;20534;-74
2021/04/03 03:13:21;;;;;;;12.70;5.70;;;9.00;76.60;;;;;;4968205;28;20856;-73
2021/04/03 03:15:47;;;;;;;8.37;6.33;;;9.00;76.90;;;;;;4965580;28;20988;-72
2021/04/03 03:18:14;;;;;;;16.90;5.90;;;9.10;76.10;;;;;;4966661;28;20442;-73
2021/04/03 03:20:41;;;;;;;7.07;6.00;;;9.10;75.90;;;;;;4963735;28;20453;-72
2021/04/03 03:23:07;;;;;;;9.07;6.20;;;9.10;75.90;;;;;;4965295;28;20833;-73
2021/04/03 03:25:33;;;;;;;6.03;5.43;;;9.10;75.40;;;;;;4965423;28;20448;-74
2021/04/03 03:28:00;;;;;;;6.70;5.67;;;9.10;74.90;;;;;;4967249;28;20438;-72
2021/04/03 03:30:27;;;;;;;8.07;6.63;;;9.10;74.60;;;;;;4965367;28;20693;-74
2021/04/03 03:32:54;;;;;;;11.47;6.50;;;9.10;76.10;;;;;;4962268;28;20477;-71
2021/04/03 03:35:20;;;;;;;7.87;6.30;;;9.10;77.40;;;;;;4965771;28;20453;-72
2021/04/03 03:37:47;;;;;;;10.43;6.47;;;9.10;78.20;;;;;;4966302;28;20452;-73
2021/04/03 03:40:15;;;;;;;8.87;6.17;;;9.00;78.40;;;;;;4963438;28;20451;-73
2021/04/03 03:42:42;;;;;;;7.93;6.30;;;9.00;79.70;;;;;;4947997;28;20480;-74
2021/04/03 03:45:09;;;;;;;8.40;6.93;;;9.00;80.10;;;;;;4966985;28;20446;-74
2021/04/03 03:47:35;;;;;;;8.90;6.60;;;9.00;80.20;;;;;;4965612;28;20515;-72
2021/04/03 03:50:01;;;;;;;8.40;6.60;;;9.00;80.90;;;;;;4968326;28;20551;-73
2021/04/03 03:52:26;;;;;;;9.10;6.70;;;9.00;80.80;;;;;;4965791;28;20987;-73
2021/04/03 03:54:52;;;;;;;12.57;7.60;;;9.00;81.50;;;;;;4966666;28;20644;-73
2021/04/03 03:57:18;;;;;;;6.80;6.20;;;9.00;81.60;;;;;;4964422;28;20289;-73
2021/04/03 03:59:43;;;;;;;7.63;6.37;;;8.90;81.30;;;;;;4966359;28;20635;-74
2021/04/03 04:02:09;;;;;;;10.10;6.40;;;8.90;81.50;;;;;;4966054;28;20241;-73
2021/04/03 04:04:34;;;;;;;8.50;6.47;;;8.90;81.30;;;;;;4964784;28;20209;-73
2021/04/03 04:07:00;;;;;;;8.93;6.23;;;8.90;81.30;;;;;;4968858;28;20352;-73
2021/04/03 04:09:27;;;;;;;8.73;5.53;;;8.90;82.20;;;;;;4964895;28;20199;-73
2021/04/03 04:11:52;;;;;;;8.73;5.93;;;8.90;82.60;;;;;;4945130;28;20282;-74
2021/04/03 04:14:18;;;;;;;11.90;6.20;;;8.90;82.80;;;;;;4967448;28;20445;-73
2021/04/03 04:16:44;;;;;;;10.23;6.50;;;8.80;83.10;;;;;;4964434;28;20202;-72
2021/04/03 04:19:10;;;;;;;8.40;6.83;;;8.90;83.90;;;;;;4966133;28;20814;-73
2021/04/03 04:21:36;;;;;;;7.43;6.60;;;8.90;83.60;;;;;;4949012;28;20430;-73
2021/04/03 04:24:01;;;;;;;8.40;5.87;;;8.90;83.30;;;;;;4946933;28;20434;-73
2021/04/03 04:26:27;;;;;;;9.23;6.30;;;8.90;83.40;;;;;;4965262;28;20735;-74
2021/04/03 04:28:53;;;;;;;7.70;6.77;;;8.90;83.40;;;;;;4958113;28;20197;-73
2021/04/03 04:31:18;;;;;;;7.03;6.33;;;8.90;83.60;;;;;;4964689;28;20943;-73
2021/04/03 04:33:44;;;;;;;10.03;6.33;;;8.90;84.10;;;;;;4960771;28;20194;-72
2021/04/03 04:36:09;;;;;;;11.30;6.90;;;8.90;84.60;;;;;;4961648;28;20761;-74
2021/04/03 04:38:35;;;;;;;8.57;6.93;;;8.90;83.80;;;;;;4962801;28;20205;-73
2021/04/03 04:41:01;;;;;;;7.13;6.43;;;8.90;84.00;;;;;;4965348;28;20627;-73
2021/04/03 04:43:26;;;;;;;11.30;6.13;;;8.80;84.30;;;;;;4961570;28;20182;-74
2021/04/03 04:45:53;;;;;;;8.40;6.77;;;8.80;84.10;;;;;;4964294;28;20635;-75
2021/04/03 04:48:19;;;;;;;10.70;6.80;;;8.80;83.70;;;;;;4961701;28;20692;-72
2021/04/03 04:50:44;;;;;;;6.30;5.70;;;8.80;83.30;;;;;;4965423;28;20449;-72
2021/04/03 04:53:10;;;;;;;10.80;7.67;;;8.80;83.60;;;;;;4962856;28;20272;-73
2021/04/03 04:55:36;;;;;;;9.23;6.70;;;8.80;84.60;;;;;;4964546;28;20199;-73
2021/04/03 04:58:01;;;;;;;9.80;6.80;;;8.80;86.50;;;;;;4962585;28;20183;-73
2021/04/03 05:00:27;;;;;;;9.93;6.57;;;8.80;87.60;;;;;;4960946;28;20261;-74
2021/04/03 05:02:53;;;;;;;6.67;6.07;;;8.70;88.60;;;;;;4961095;28;20217;-73
2021/04/03 05:05:19;;;;;;;8.20;6.30;;;8.80;88.60;;;;;;4961896;28;20182;-74
2021/04/03 05:07:44;;;;;;;10.33;6.80;;;8.70;88.70;;;;;;4963927;28;20563;-72
2021/04/03 05:10:11;;;;;;;10.63;6.70;;;8.70;88.30;;;;;;4963015;28;20218;-72
2021/04/03 05:12:37;;;;;;;11.63;6.10;;;8.70;88.30;;;;;;4963770;28;20590;-74
2021/04/03 05:15:04;;;;;;;8.23;5.93;;;8.70;88.70;;;;;;4963886;28;20453;-73
2021/04/03 05:17:30;;;;;;;10.23;6.40;;;8.70;88.10;;;;;;4962638;28;20245;-75
2021/04/03 05:19:56;;;;;;;6.93;5.93;;;8.70;88.00;;;;;;4945017;28;20546;-74
2021/04/03 05:22:21;;;;;;;6.20;5.60;;;8.60;88.90;;;;;;4944654;28;20205;-74
2021/04/03 05:24:47;;;;;;;6.17;5.63;;;8.60;88.40;;;;;;4962658;28;20458;-73
2021/04/03 05:27:13;;;;;;;8.00;6.60;;;8.50;89.10;;;;;;4963030;28;20210;-72
2021/04/03 05:29:38;;;;;;;7.93;6.33;;;8.60;89.60;;;;;;4964602;28;20588;-73
2021/04/03 05:32:05;;;;;;;7.13;6.00;;;8.60;89.50;;;;;;4963220;28;20216;-71
2021/04/03 05:34:30;;;;;;;10.90;6.20;;;8.60;89.60;;;;;;4963655;28;20222;-74
2021/04/03 05:36:56;;;;;;;7.23;6.17;;;8.60;89.40;;;;;;4961828;28;20532;-74
2021/04/03 05:39:22;;;;;;;8.27;6.50;;;8.60;89.30;;;;;;4960965;28;20202;-73
2021/04/03 05:41:47;;;;;;;8.63;6.80;;;8.70;88.90;;;;;;4958245;28;20307;-73
2021/04/03 05:44:14;;;;;;;7.80;5.50;;;8.70;89.10;;;;;;4947014;28;20205;-74
2021/04/03 05:46:42;;;;;;;7.00;5.90;;;8.60;89.30;;;;;;4962759;28;20680;-73
2021/04/03 05:49:08;;;;;;;6.53;5.80;;;8.70;90.00;;;;;;4962028;28;20456;-70
2021/04/03 05:51:34;;;;;;;10.90;6.27;;;8.70;90.00;;;;;;4963659;28;20576;-71
2021/04/03 05:54:01;;;;;;;7.10;6.50;;;8.70;90.20;;;;;;4961904;28;20525;-73
2021/04/03 05:56:28;;;;;;;6.40;5.80;;;8.70;90.10;;;;;;4923360;28;20475;-75
2021/04/03 05:58:54;;;;;;;7.13;6.27;;;8.80;90.20;;;;;;4962351;28;20564;-73
2021/04/03 06:01:20;;;;;;;5.50;5.00;;;8.80;90.10;;;;;;4962861;28;20511;-72
2021/04/03 06:03:46;;;;;;;6.20;5.60;;;8.80;90.40;;;;;;4962500;28;20474;-73
2021/04/03 06:06:12;;;;;;;12.50;6.13;;;8.80;90.50;;;;;;4963252;28;20312;-73
2021/04/03 06:08:38;;;;;;;9.13;5.83;;;8.80;90.90;;;;;;4963999;28;20286;-74
2021/04/03 06:11:10;;;;;;;6.70;5.27;;;8.80;90.70;;;;;;4961362;28;20568;-73
2021/04/03 06:13:36;;;;;;;8.40;5.73;;;8.80;90.50;;;;;;4960861;28;20438;-72
2021/04/03 06:16:22;;;;;;;5.90;5.13;;;8.80;90.50;;;;;;4963494;28;20455;-74
2021/04/03 06:18:48;;;;;;;7.60;5.90;;;8.80;90.70;;;;;;4962934;28;20315;-74
2021/04/03 06:21:13;;;;;;;7.53;6.30;;;8.80;90.90;;;;;;4964274;28;20560;-72
2021/04/03 06:23:39;;;;;;;10.10;5.63;;;8.80;90.80;;;;;;4963730;28;21184;-74
2021/04/03 06:26:05;;;;;;;9.10;5.40;;;8.80;91.10;;;;;;4962677;28;20229;-74
2021/04/03 06:28:32;;;;;;;13.40;7.77;;;8.80;91.30;;;;;;4959940;28;20760;-72
2021/04/03 06:31:18;;;;;;;8.03;6.10;;;8.90;91.60;;;;;;4963828;28;20300;-73
2021/04/03 06:33:45;;;;;;;9.83;6.43;;;8.90;90.90;;;;;;4960188;28;20940;-74
2021/04/03 06:36:12;;;;;;;7.03;6.20;;;8.90;90.70;;;;;;4963566;28;20441;-72
2021/04/03 06:38:42;;;;;;;7.20;6.40;;;8.80;91.20;;;;;;4962453;28;20454;-74
2021/04/03 06:41:25;;;;;;;9.53;6.57;;;8.90;91.00;;;;;;4959842;28;20540;-73
2021/04/03 06:44:07;;;;;;;7.23;6.33;;;9.00;91.20;;;;;;4964735;28;20446;-75
2021/04/03 06:46:34;;;;;;;8.00;6.00;;;8.80;91.00;;;;;;4948573;28;20488;-74
2021/04/03 06:49:00;;;;;;;9.60;5.00;;;9.00;91.10;;;;;;4962261;28;20433;-74
2021/04/03 06:51:27;;;;;;;7.23;6.50;;;9.00;91.10;;;;;;4962701;28;20450;-73
2021/04/03 06:53:55;;;;;;;7.53;6.40;;;9.00;90.90;;;;;;4944906;28;20477;-73
2021/04/03 06:56:23;;;;;;;9.33;7.10;;;9.00;91.10;;;;;;4963636;28;20483;-75
2021/04/03 06:58:56;;;;;;;9.10;6.40;;;9.10;91.00;;;;;;4962552;28;20893;-72
2021/04/03 07:01:25;;;;;;;6.67;5.83;;;9.10;91.00;;;;;;4960615;28;20464;-73
2021/04/03 07:03:56;;;;;;;7.60;6.13;;;9.20;90.70;;;;;;4963324;28;20936;-74
2021/04/03 07:06:24;;;;;;;11.77;6.00;;;9.30;90.40;;;;;;4961004;28;20480;-74
2021/04/03 07:08:54;;;;;;;7.17;5.93;;;9.30;90.00;;;;;;4962118;28;20434;-73
2021/04/03 07:11:20;;;;;;;11.60;7.00;;;9.30;88.00;;;;;;4962631;28;20458;-74
2021/04/03 07:13:46;;;;;;;8.53;5.80;;;9.20;87.90;;;;;;4964180;28;20592;-73
2021/04/03 07:16:11;;;;;;;12.90;6.17;;;9.30;87.90;;;;;;4968360;28;20209;-74
2021/04/03 07:18:41;;;;;;;6.60;5.30;;;9.50;87.70;;;;;;4967365;28;20611;-74
2021/04/03 07:21:07;;;;;;;7.70;6.20;;;9.50;86.20;;;;;;4965435;28;20288;-74
2021/04/03 07:23:35;;;;;;;7.57;6.20;;;9.60;85.40;;;;;;4946694;28;21017;-74
2021/04/03 07:26:02;;;;;;;7.07;5.90;;;9.70;85.10;;;;;;4965640;28;20879;-73
2021/04/03 07:28:41;;;;;;;7.47;5.80;;;9.50;84.10;;;;;;4965197;28;20961;-72
2021/04/03 07:31:07;;;;;;;8.83;5.60;;;9.50;84.50;;;;;;4966134;28;20511;-73
2021/04/03 07:33:33;;;;;;;7.43;6.13;;;9.60;84.30;;;;;;4961876;28;20422;-74
2021/04/03 07:36:08;;;;;;;5.93;5.37;;;9.70;81.00;;;;;;4946727;28;20449;-73
2021/04/03 07:38:37;;;;;;;5.90;5.13;;;9.80;77.90;;;;;;4960413;28;20513;-74
2021/04/03 07:41:12;;;;;;;6.10;5.50;;;9.80;77.70;;;;;;4959307;28;20832;-73
2021/04/03 07:43:43;;;;;;;8.73;6.33;;;9.80;78.60;;;;;;4965763;28;20523;-73
2021/04/03 07:46:12;;;;;;;7.00;5.93;;;9.80;77.40;;;;;;4964482;28;20586;-72
2021/04/03 07:48:37;;;;;;;7.10;5.40;;;9.80;76.60;;;;;;4946817;28;21051;-73
2021/04/03 07:51:07;;;;;;;6.57;5.77;;;9.80;77.60;;;;;;4965254;28;20515;-73
2021/04/03 07:53:35;;;;;;;10.00;6.00;;;9.70;78.60;;;;;;4964886;28;20566;-74
2021/04/03 07:56:01;;;;;;;10.40;6.10;;;9.90;79.00;;;;;;4959017;28;20450;-72
2021/04/03 07:58:29;;;;;;;8.27;5.70;;;10.00;76.40;;;;;;4967488;28;20499;-73
2021/04/03 08:00:56;;;;;;;6.50;5.60;;;10.20;75.50;;;;;;4964884;28;20462;-74
2021/04/03 08:03:27;;;;;;;8.87;5.80;;;10.10;74.40;;;;;;4964572;28;20442;-74
2021/04/03 08:06:04;;;;;;;6.30;5.63;;;10.10;74.30;;;;;;4947491;28;20446;-74
2021/04/03 08:08:33;;;;;;;7.50;6.10;;;10.30;75.00;;;;;;4960411;28;20749;-73
2021/04/03 08:11:11;;;;;;;6.30;5.70;;;10.30;74.30;;;;;;4963723;28;20453;-72
2021/04/03 08:13:48;;;;;;;7.17;5.90;;;10.30;73.80;;;;;;4960641;28;20446;-73
2021/04/03 08:16:15;;;;;;;8.70;4.90;;;10.30;72.90;;;;;;4964724;28;20848;-75
2021/04/03 08:18:43;;;;;;;5.87;4.80;;;10.30;70.30;;;;;;4963439;28;20792;-74
2021/04/03 08:21:10;;;;;;;6.87;5.03;;;10.30;69.40;;;;;;4948510;28;20992;-74
2021/04/03 08:23:40;;;;;;;4.07;3.77;;;10.30;68.20;;;;;;4962286;28;21189;-74
2021/04/03 08:26:06;;;;;;;5.90;4.57;;;10.50;67.90;;;;;;4960418;28;20497;-74
2021/04/03 08:28:32;;;;;;;12.07;5.00;;;10.70;66.60;;;;;;4961729;28;20454;-74
2021/04/03 08:31:12;;;;;;;5.60;5.10;;;10.60;65.50;;;;;;4945748;28;20466;-74
2021/04/03 08:33:37;;;;;;;6.10;4.77;;;10.80;67.00;;;;;;4966864;28;20449;-74
2021/04/03 08:36:13;;;;;;;7.60;4.60;;;10.90;66.50;;;;;;4964017;28;20454;-71
2021/04/03 08:38:40;;;;;;;8.57;4.60;;;11.00;68.30;;;;;;4961190;28;20198;-70
2021/04/03 08:41:06;;;;;;;5.20;4.70;;;11.30;66.20;;;;;;4944955;28;20477;-73
2021/04/03 08:43:33;;;;;;;5.17;4.70;;;11.50;65.90;;;;;;4962201;28;20576;-74
2021/04/03 08:46:08;;;;;;;7.20;5.40;;;11.30;64.30;;;;;;4963902;28;20605;-75
2021/04/03 08:48:36;;;;;;;5.47;4.97;;;11.20;65.70;;;;;;4963015;28;20477;-75
2021/04/03 08:51:03;;;;;;;5.87;5.37;;;11.40;65.50;;;;;;4962058;28;20466;-72
2021/04/03 08:53:52;;;;;;;5.77;5.13;;;12.20;64.90;;;;;;4962933;28;20536;-76
2021/04/03 08:56:26;;;;;;;6.97;5.37;;;13.50;60.60;;;;;;4964463;28;20522;-75
2021/04/03 08:58:53;;;;;;;7.67;5.43;;;14.30;57.80;;;;;;4959949;28;20448;-75
2021/04/03 09:01:28;;;;;;;4.90;4.40;;;14.60;54.40;;;;;;4958694;28;20809;-76
2021/04/03 09:03:58;;;;;;;5.00;4.57;;;15.30;53.60;;;;;;4964183;28;20465;-77
2021/04/03 09:06:50;;;;;;;6.73;4.50;;;16.30;52.00;;;;;;4966580;28;20513;-76
2021/04/03 09:09:17;;;;;;;5.60;5.10;;;18.60;50.30;;;;;;4961832;28;20452;-76
2021/04/03 09:12:03;;;;;;;4.80;4.33;;;20.40;47.40;;;;;;4960124;28;20556;-75
2021/04/03 09:14:39;;;;;;;4.90;4.50;;;22.10;44.10;;;;;;4964466;28;20453;-76
2021/04/03 09:17:26;;;;;;;5.60;5.10;;;23.60;41.70;;;;;;4965986;28;20430;-72
2021/04/03 09:20:03;;;;;;;4.90;4.40;;;25.20;38.80;;;;;;4963425;28;20463;-76
2021/04/03 09:22:38;;;;;;;6.83;5.30;;;26.40;35.50;;;;;;4960883;28;21576;-75
2021/04/03 09:25:11;;;;;;;5.80;4.80;;;27.10;32.40;;;;;;4959498;28;20434;-77
2021/04/03 09:27:37;;;;;;;5.20;4.70;;;27.20;32.40;;;;;;4959455;28;20553;-75
2021/04/03 09:30:10;;;;;;;4.70;4.40;;;26.90;31.60;;;;;;4964969;28;20473;-75
2021/04/03 09:32:47;;;;;;;4.60;4.20;;;27.20;31.50;;;;;;4962712;28;20449;-74
2021/04/03 09:35:26;;;;;;;4.90;4.50;;;26.90;30.70;;;;;;4955190;28;20453;-72
2021/04/03 09:38:03;;;;;;;5.87;5.00;;;27.80;30.50;;;;;;4956596;28;20464;-76
2021/04/03 09:40:48;;;;;;;5.10;4.60;;;29.00;30.20;;;;;;4961726;28;21212;-75
2021/04/03 09:43:15;;;;;;;7.10;4.70;;;29.10;28.90;;;;;;4961768;28;20949;-76
2021/04/03 09:45:41;;;;;;;4.80;4.30;;;29.50;28.60;;;;;;4962954;28;20461;-77
2021/04/03 09:48:10;;;;;;;4.77;4.47;;;30.00;27.90;;;;;;4960058;28;20865;-75
2021/04/03 09:50:37;;;;;;;4.87;4.40;;;30.20;27.40;;;;;;4962588;28;20609;-74
2021/04/03 09:53:11;;;;;;;5.00;4.60;;;30.90;27.40;;;;;;4958942;28;20432;-75
2021/04/03 09:55:37;;;;;;;6.80;4.20;;;31.50;26.70;;;;;;4960272;28;20434;-74
2021/04/03 09:58:03;;;;;;;5.30;4.80;;;31.50;26.50;;;;;;4961394;28;20470;-75
2021/04/03 10:00:29;;;;;;;4.40;4.10;;;31.30;26.50;;;;;;4962541;28;20458;-75
2021/04/03 10:02:56;;;;;;;6.17;4.17;;;31.30;26.20;;;;;;4961951;28;20446;-73
2021/04/03 10:05:22;;;;;;;4.87;4.50;;;31.20;25.70;;;;;;4964111;28;20909;-75
2021/04/03 10:07:48;;;;;;;4.83;4.43;;;30.00;26.00;;;;;;4962048;28;20492;-75
2021/04/03 10:10:14;;;;;;;5.90;5.40;;;28.30;26.40;;;;;;4963467;28;20450;-76
2021/04/03 10:12:40;;;;;;;5.00;4.67;;;27.30;26.90;;;;;;4962099;28;20194;-75
2021/04/03 10:15:06;;;;;;;4.50;4.10;;;26.20;27.80;;;;;;4956814;28;20469;-74
2021/04/03 10:17:32;;;;;;;4.67;4.27;;;25.60;28.40;;;;;;4960729;28;20285;-75
2021/04/03 10:19:58;;;;;;;4.67;4.27;;;25.50;28.90;;;;;;4962108;28;20540;-76
2021/04/03 10:22:23;;;;;;;4.90;4.50;;;25.30;28.90;;;;;;4963291;28;20219;-74
2021/04/03 10:24:49;;;;;;;8.27;4.27;;;24.50;29.20;;;;;;4944410;28;20190;-75
2021/04/03 10:27:15;;;;;;;5.33;4.67;;;24.10;29.30;;;;;;4963943;28;20218;-76
2021/04/03 10:29:40;;;;;;;4.53;4.13;;;23.90;29.80;;;;;;4962164;28;20665;-75
2021/04/03 10:32:06;;;;;;;4.77;4.27;;;23.80;29.70;;;;;;4960649;28;20229;-75
2021/04/03 10:34:32;;;;;;;6.77;4.40;;;23.30;30.00;;;;;;4965103;28;20194;-76
2021/04/03 10:36:58;;;;;;;4.70;4.30;;;22.60;30.00;;;;;;4963308;28;20489;-76
2021/04/03 10:39:24;;;;;;;4.50;4.10;;;22.40;31.10;;;;;;4946702;28;20261;-74
2021/04/03 10:41:49;;;;;;;4.97;4.53;;;22.10;30.80;;;;;;4941881;28;20225;-75
2021/04/03 10:44:15;;;;;;;5.20;4.63;;;21.70;30.70;;;;;;4964392;28;20202;-75
2021/04/03 10:46:40;;;;;;;5.13;4.00;;;22.50;31.80;;;;;;4964850;28;20229;-76
2021/04/03 10:49:06;;;;;;;9.77;4.30;;;22.80;31.50;;;;;;4966439;28;20218;-76
2021/04/03 10:51:32;;;;;;;4.53;4.20;;;22.40;31.70;;;;;;4966717;28;20633;-75
2021/04/03 10:53:57;;;;;;;4.43;4.03;;;21.60;31.20;;;;;;4965282;28;20865;-76
2021/04/03 10:56:23;;;;;;;4.60;4.20;;;21.20;32.30;;;;;;4963974;28;20217;-76
2021/04/03 10:58:48;;;;;;;4.03;3.73;;;20.90;32.60;;;;;;4963033;28;20206;-74
2021/04/03 11:01:14;;;;;;;5.47;4.87;;;20.70;33.00;;;;;;4966681;28;20214;-76
2021/04/03 11:03:40;;;;;;;4.80;4.40;;;20.60;32.90;;;;;;4965589;28;20266;-75
2021/04/03 11:06:06;;;;;;;5.07;4.60;;;20.60;33.70;;;;;;4966084;28;20202;-76
2021/04/03 11:08:31;;;;;;;6.30;4.17;;;21.30;33.30;;;;;;4945056;28;20191;-75
2021/04/03 11:10:57;;;;;;;4.83;4.53;;;21.20;32.40;;;;;;4966007;28;20221;-76
2021/04/03 11:13:23;;;;;;;6.07;4.60;;;21.50;32.00;;;;;;4962387;28;20705;-75
2021/04/03 11:15:49;;;;;;;6.90;4.67;;;21.40;32.30;;;;;;4948865;28;20434;-74
2021/04/03 11:18:15;;;;;;;5.20;4.70;;;23.60;32.10;;;;;;4966868;28;20246;-75
2021/04/03 11:20:41;;;;;;;4.40;4.00;;;25.60;30.80;;;;;;4966396;28;20238;-74
2021/04/03 11:23:07;;;;;;;7.50;4.10;;;28.30;29.80;;;;;;4963603;28;20438;-76
2021/04/03 11:25:33;;;;;;;4.90;4.60;;;29.80;28.00;;;;;;4968364;28;20229;-74
2021/04/03 11:28:00;;;;;;;5.20;4.80;;;29.90;26.90;;;;;;4963645;28;20215;-75
2021/04/03 11:30:26;;;;;;;4.97;4.53;;;29.10;26.50;;;;;;4965925;28;20481;-75
2021/04/03 11:32:51;;;;;;;4.50;4.10;;;29.00;26.90;;;;;;4964005;28;20876;-74
2021/04/03 11:35:19;;;;;;;4.47;4.17;;;28.20;27.20;;;;;;4968161;28;20505;-74
2021/04/03 11:37:45;;;;;;;8.50;4.80;;;26.10;27.90;;;;;;4967029;28;20190;-75
2021/04/03 11:40:12;;;;;;;6.03;4.90;;;25.10;28.50;;;;;;4963097;28;20531;-76
2021/04/03 11:42:38;;;;;;;4.40;4.10;;;23.60;28.60;;;;;;4960007;28;20453;-76
2021/04/03 11:45:07;;;;;;;4.93;4.53;;;24.00;29.60;;;;;;4959983;28;20451;-74
2021/04/03 11:47:33;;;;;;;5.13;4.63;;;23.80;29.40;;;;;;4942274;28;20209;-74
2021/04/03 11:49:59;;;;;;;4.67;4.37;;;25.30;30.00;;;;;;4964517;28;20909;-76
2021/04/03 11:52:25;;;;;;;4.00;3.70;;;25.60;28.50;;;;;;4961178;28;20554;-71
2021/04/03 11:54:52;;;;;;;5.40;4.57;;;25.80;29.80;;;;;;4961936;28;20199;-74
2021/04/03 11:57:17;;;;;;;5.23;4.67;;;26.40;29.40;;;;;;4941890;28;21116;-69
2021/04/03 11:59:46;;;;;;;5.20;4.70;;;25.50;29.30;;;;;;4962628;28;20843;-70
2021/04/03 12:02:12;;;;;;;6.53;4.33;;;24.00;29.50;;;;;;4960750;28;20186;-69
2021/04/03 12:04:38;;;;;;;5.70;4.23;;;24.40;29.90;;;;;;4964657;28;20912;-69
2021/04/03 12:07:04;;;;;;;4.43;3.90;;;24.10;29.40;;;;;;4959125;28;20249;-72
2021/04/03 12:09:30;;;;;;;4.40;4.00;;;24.10;29.70;;;;;;4962736;28;20433;-70
2021/04/03 12:11:56;;;;;;;5.63;4.97;;;24.80;29.00;;;;;;4944247;28;20470;-70
2021/04/03 12:14:21;;;;;;;4.33;4.03;;;26.00;29.20;;;;;;4964074;28;20278;-70
2021/04/03 12:16:47;;;;;;;5.00;4.57;;;27.80;28.10;;;;;;4966642;28;20661;-70
2021/04/03 12:19:12;;;;;;;3.80;3.50;;;28.40;27.50;;;;;;4953663;28;20754;-71
2021/04/03 12:21:38;;;;;;;4.60;3.70;;;27.80;26.80;;;;;;4959185;28;20218;-70
2021/04/03 12:24:04;;;;;;;5.03;4.00;;;27.30;27.10;;;;;;4960386;28;20199;-70
2021/04/03 12:26:30;;;;;;;7.17;3.90;;;26.80;27.60;;;;;;4941459;28;20289;-70
2021/04/03 12:28:56;;;;;;;3.93;3.63;;;26.10;28.00;;;;;;4958480;28;20442;-69
2021/04/03 12:31:21;;;;;;;4.87;3.70;;;26.70;28.10;;;;;;4959439;28;20247;-70
2021/04/03 12:33:47;;;;;;;4.37;4.07;;;25.80;27.40;;;;;;4959755;28;21107;-71
2021/04/03 12:36:13;;;;;;;4.77;4.30;;;25.00;28.30;;;;;;4956001;28;20203;-70
2021/04/03 12:38:39;;;;;;;4.47;4.17;;;25.40;28.50;;;;;;4940224;28;20190;-70
2021/04/03 12:41:04;;;;;;;5.83;5.10;;;25.80;28.40;;;;;;4965670;28;20242;-77
2021/04/03 12:43:30;;;;;;;4.60;3.97;;;26.20;27.70;;;;;;4963237;28;20283;-76
2021/04/03 12:45:56;;;;;;;4.57;3.83;;;24.90;28.00;;;;;;4971772;28;20270;-76
2021/04/03 12:48:23;;;;;;;4.00;3.60;;;25.90;28.30;;;;;;4968054;28;20756;-76
2021/04/03 12:50:49;;;;;;;5.07;3.83;;;27.50;26.70;;;;;;4962545;28;20481;-76
2021/04/03 12:53:18;;;;;;;5.00;4.03;;;26.00;26.80;;;;;;4962883;28;20438;-75
2021/04/03 12:55:44;;;;;;;4.40;4.10;;;24.80;27.00;;;;;;4964556;28;20438;-73